»·PEaware :: N475RS KTUS-KPHX

N475RS :: KTUS-KPHX

FLIGHT INFORMATION

Flight Status: Arrived
Operator: Privately registered:
United States
More flights under this callsign
Pilot: Aker J. (16898)
Aircraft: BEECH AIRCRAFT BARON
(BE58)
More flights by this aircraft type
Origin: KTUS Tucson Intl
United States
Destination: KPHX Phoenix Sky Harbor Intl
United States
More flights between these airports :: More routes between these airports
Route: +WLDKT3 WLDKT HOTTT PINNG1
File this flight plan on PilotEdge
Remarks: Sample flight plan
Altitude:
(Current/Filed)
22,000ft
Speed:
(Current/Filed)
300kts
Departed: 06-Dec-17 09:00 PM
Arrived: 06-Dec-17 09:35 PM
Distance/Time
Traveled:
391nm/0:34
Distance/Time
To Go:
Arrived

Flight Plot

Page will automatically refresh every two minutes.

Flight plan parsing failed; only flown route is shown


Map Options




Map Legend


Flown Route
Filed Route
Departure Airport
Arrival Airport
Navaid (VOR, NDB)
Fix

Horizontal Profiles

Position Reports

Time Latitude Longitude Heading Altitude Ground
Speed
06-Dec-17 20:49 32.114586 -110.932201 225 2617ft 0kts
06-Dec-17 20:50 32.114586 -110.932201 225 2617ft 0kts
06-Dec-17 20:51 32.114586 -110.932201 225 2617ft 0kts
06-Dec-17 20:52 32.114586 -110.932201 225 2617ft 0kts
06-Dec-17 20:53 32.114586 -110.932201 225 2617ft 0kts
06-Dec-17 20:54 32.114586 -110.932201 225 2617ft 0kts
06-Dec-17 20:55 32.114586 -110.932201 225 2617ft 0kts
06-Dec-17 20:56 32.114586 -110.932201 225 2617ft 0kts
06-Dec-17 20:57 32.114586 -110.932201 225 2617ft 0kts
06-Dec-17 20:58 32.114586 -110.932201 225 2617ft 0kts
06-Dec-17 20:59 32.113674 -110.933323 217 2617ft 16kts
06-Dec-17 21:00 32.110717 -110.930542 134 2626ft 21kts
06-Dec-17 21:01 32.106152 -110.925203 135 2643ft 19kts
06-Dec-17 21:02 32.103158 -110.922319 227 2652ft 0kts
06-Dec-17 21:03 32.103158 -110.922319 227 2652ft 0kts
06-Dec-17 21:04 32.102562 -110.923364 285 2650ft 11kts
06-Dec-17 21:05 32.118990 -110.942903 314 2787ft 149kts
06-Dec-17 21:06 32.144249 -110.974897 312 3884ft 210kts
06-Dec-17 21:07 32.186219 -111.030437 313 6597ft 238kts
06-Dec-17 21:08 32.241101 -111.079302 358 8384ft 265kts
06-Dec-17 21:09 32.303204 -111.061125 11 10150ft 271kts
06-Dec-17 21:10 32.368789 -111.050635 6 12047ft 269kts
06-Dec-17 21:11 32.433733 -111.042773 6 14227ft 275kts
06-Dec-17 21:12 32.511718 -111.033754 2 17180ft 305kts
06-Dec-17 21:13 32.589291 -111.078954 329 20098ft 347kts
06-Dec-17 21:14 32.667980 -111.137667 328 22139ft 354kts
06-Dec-17 21:15 32.720724 -111.177358 328 22161ft 353kts
06-Dec-17 21:16 32.720724 -111.177358 328 22161ft 353kts
06-Dec-17 21:17 32.725400 -111.180876 328 22161ft 353kts
06-Dec-17 21:18 32.775665 -111.248350 307 20645ft 330kts
06-Dec-17 21:19 32.823196 -111.332267 307 18615ft 311kts
06-Dec-17 21:20 32.869938 -111.415124 307 16637ft 307kts
06-Dec-17 21:21 32.916651 -111.496338 311 14658ft 301kts
06-Dec-17 21:22 32.967152 -111.571963 311 13041ft 296kts
06-Dec-17 21:23 33.016980 -111.646617 311 12804ft 298kts
06-Dec-17 21:24 33.066594 -111.720988 311 11995ft 295kts
06-Dec-17 21:25 33.117282 -111.797117 312 11487ft 294kts
06-Dec-17 21:26 33.167228 -111.872203 312 10905ft 291kts
06-Dec-17 21:27 33.212961 -111.941173 312 9647ft 263kts
06-Dec-17 21:28 33.257616 -112.008462 311 8156ft 256kts
06-Dec-17 21:29 33.298097 -112.069603 311 6998ft 226kts
06-Dec-17 21:30 33.327138 -112.138430 298 7003ft 230kts
06-Dec-17 21:31 33.341371 -112.202077 274 7012ft 202kts
06-Dec-17 21:32 33.341823 -112.266249 274 6922ft 200kts
06-Dec-17 21:33 33.373787 -112.272209 76 6220ft 170kts
06-Dec-17 21:34 33.384031 -112.219603 60 5670ft 169kts
06-Dec-17 21:35 33.397100 -112.191103 52 5402ft 218kts
06-Dec-17 21:36 33.421262 -112.151608 57 4223ft 197kts
06-Dec-17 21:37 33.427957 -112.099462 97 2580ft 156kts
06-Dec-17 21:38 33.428049 -112.070618 81 1892ft 126kts
06-Dec-17 21:39 33.428836 -112.030525 87 1228ft 122kts
06-Dec-17 21:40 33.427942 -112.015939 40 1117ft 1kts
06-Dec-17 21:41 33.428662 -112.055287 89 1618ft 126kts
06-Dec-17 21:42 33.428348 -112.017059 168 1117ft 53kts
06-Dec-17 21:43 33.427974 -112.015906 41 1117ft 0kts
06-Dec-17 21:44 33.945860 -118.402283 150 117ft 0kts
06-Dec-17 21:45 33.945860 -118.402283 150 117ft 0kts
06-Dec-17 21:46 33.945860 -118.402283 150 117ft 0kts
06-Dec-17 21:47 33.945860 -118.402283 150 117ft 0kts

Navigation Log

Ident Type
Flight plan parsing failed, navigation log unavailable